createdAt,value
2022-12-05T00:00:54.698Z,5.87
2022-12-05T00:03:22.289Z,5.40
2022-12-05T00:05:49.106Z,4.83
2022-12-05T00:08:16.105Z,5.00
2022-12-05T00:10:42.775Z,4.53
2022-12-05T00:13:09.631Z,4.87
2022-12-05T00:15:40.594Z,4.37
2022-12-05T00:18:07.591Z,5.23
2022-12-05T00:20:34.423Z,4.57
2022-12-05T00:23:01.598Z,5.10
2022-12-05T00:25:28.481Z,5.03
2022-12-05T00:27:55.070Z,4.23
2022-12-05T00:30:21.691Z,4.37
2022-12-05T00:32:48.284Z,3.37
2022-12-05T00:35:14.855Z,5.03
2022-12-05T00:37:41.443Z,4.17
2022-12-05T00:40:08.608Z,3.53
2022-12-05T00:42:35.194Z,4.80
2022-12-05T00:45:01.871Z,4.50
2022-12-05T00:47:28.430Z,3.77
2022-12-05T00:49:55.332Z,4.00
2022-12-05T00:52:22.320Z,4.70
2022-12-05T00:54:48.902Z,4.57
2022-12-05T00:57:15.506Z,3.83
2022-12-05T00:59:42.106Z,6.50
2022-12-05T01:02:08.849Z,7.47
2022-12-05T01:04:35.441Z,8.00
2022-12-05T01:07:02.024Z,7.43
2022-12-05T01:09:28.907Z,5.30
2022-12-05T01:11:56.207Z,5.23
2022-12-05T01:14:25.055Z,4.20
2022-12-05T01:16:53.753Z,4.10
2022-12-05T01:19:24.250Z,4.93
2022-12-05T01:21:51.605Z,4.23
2022-12-05T01:24:19.599Z,4.33
2022-12-05T01:26:46.859Z,3.87
2022-12-05T01:29:16.119Z,4.20
2022-12-05T01:31:43.027Z,4.10
2022-12-05T01:34:15.454Z,4.30
2022-12-05T01:36:42.857Z,3.83
2022-12-05T01:39:10.927Z,4.50
2022-12-05T01:41:41.056Z,5.40
2022-12-05T01:44:27.574Z,4.27
2022-12-05T01:46:55.572Z,4.50
2022-12-05T01:49:35.985Z,3.57
2022-12-05T01:52:07.639Z,3.53
2022-12-05T01:54:37.054Z,3.40
2022-12-05T01:57:06.845Z,3.13
2022-12-05T01:59:38.267Z,2.83
2022-12-05T02:02:08.109Z,3.23
2022-12-05T02:04:41.127Z,3.30
2022-12-05T02:07:07.787Z,3.90
2022-12-05T02:09:34.435Z,3.50
2022-12-05T02:12:03.687Z,3.77
2022-12-05T02:15:26.159Z,4.10
2022-12-05T02:18:23.207Z,2.90
2022-12-05T02:20:58.800Z,3.20
2022-12-05T02:23:52.917Z,2.83
2022-12-05T02:26:38.583Z,2.77
2022-12-05T02:29:05.087Z,3.17
2022-12-05T02:31:40.984Z,3.20
2022-12-05T02:34:20.460Z,2.80
2022-12-05T02:37:17.613Z,2.57
2022-12-05T02:40:03.225Z,3.63
2022-12-05T02:43:04.208Z,3.10
2022-12-05T02:45:34.263Z,2.90
2022-12-05T02:48:01.229Z,2.63
2022-12-05T02:50:34.412Z,2.97
2022-12-05T02:53:08.201Z,3.70
2022-12-05T02:55:36.326Z,3.10
2022-12-05T02:58:07.537Z,3.60
2022-12-05T03:00:38.352Z,3.60
2022-12-05T03:03:14.723Z,3.70
2022-12-05T03:05:49.295Z,2.87
2022-12-05T03:08:22.768Z,3.47
2022-12-05T03:10:51.905Z,3.73
2022-12-05T03:13:28.387Z,3.80
2022-12-05T03:16:00.150Z,3.57
2022-12-05T03:18:33.494Z,3.57
2022-12-05T03:21:11.434Z,3.80
2022-12-05T03:23:46.136Z,3.70
2022-12-05T03:26:37.965Z,4.27
2022-12-05T03:29:44.644Z,3.90
2022-12-05T03:32:33.023Z,3.50
2022-12-05T03:35:21.371Z,3.60
2022-12-05T03:38:07.751Z,3.27
2022-12-05T03:40:56.542Z,3.30
2022-12-05T03:44:06.959Z,3.83
2022-12-05T03:46:51.563Z,3.97
2022-12-05T03:49:33.607Z,3.30
2022-12-05T03:52:15.342Z,4.17
2022-12-05T03:55:01.500Z,4.17
2022-12-05T03:57:45.093Z,3.50
2022-12-05T04:00:16.421Z,4.97
2022-12-05T04:03:09.736Z,4.70
2022-12-05T04:05:36.322Z,4.20
2022-12-05T04:08:20.524Z,3.40
2022-12-05T04:10:50.239Z,3.73
2022-12-05T04:13:46.496Z,3.83
2022-12-05T04:16:37.854Z,3.90
2022-12-05T04:19:22.694Z,3.13
2022-12-05T04:21:54.102Z,4.60
2022-12-05T04:24:47.630Z,3.30
2022-12-05T04:27:49.810Z,3.43
2022-12-05T04:30:22.577Z,3.83
2022-12-05T04:33:07.775Z,4.57
2022-12-05T04:35:58.853Z,5.03
2022-12-05T04:38:32.248Z,3.87
2022-12-05T04:41:05.491Z,3.20
2022-12-05T04:43:42.269Z,4.23
2022-12-05T04:46:11.827Z,3.80
2022-12-05T04:48:40.912Z,3.73
2022-12-05T04:51:13.234Z,3.87
2022-12-05T04:53:41.839Z,3.53
2022-12-05T04:56:11.302Z,3.40
2022-12-05T04:58:38.056Z,3.90
2022-12-05T05:01:07.643Z,4.67
2022-12-05T05:03:43.522Z,3.27
2022-12-05T05:06:13.845Z,4.17
2022-12-05T05:08:49.837Z,3.53
2022-12-05T05:11:20.486Z,3.70
2022-12-05T05:13:47.933Z,3.90
2022-12-05T05:16:23.389Z,3.60
2022-12-05T05:18:51.174Z,4.07
2022-12-05T05:21:26.524Z,5.00
2022-12-05T05:23:53.957Z,5.00
2022-12-05T05:26:21.498Z,4.67
2022-12-05T05:28:49.153Z,4.00
2022-12-05T05:31:17.374Z,5.43
2022-12-05T05:33:44.166Z,4.30
2022-12-05T05:36:13.790Z,4.33
2022-12-05T05:38:42.511Z,3.90
2022-12-05T05:41:17.274Z,4.37
2022-12-05T05:43:44.994Z,4.47
2022-12-05T05:46:12.716Z,5.73
2022-12-05T05:48:40.498Z,5.97
2022-12-05T05:51:09.880Z,4.00
2022-12-05T05:53:36.736Z,6.43
2022-12-05T05:56:14.956Z,5.37
2022-12-05T05:58:45.586Z,5.97
2022-12-05T06:01:13.208Z,5.13
2022-12-05T06:03:40.782Z,5.97
2022-12-05T06:06:10.571Z,4.97
2022-12-05T06:08:39.513Z,5.33
2022-12-05T06:11:28.593Z,5.50
2022-12-05T06:13:56.827Z,7.83
2022-12-05T06:16:23.749Z,7.73
2022-12-05T06:18:51.393Z,7.77
2022-12-05T06:21:18.036Z,8.37
2022-12-05T06:23:45.316Z,8.90
2022-12-05T06:26:14.478Z,10.10
2022-12-05T06:28:41.662Z,10.30
2022-12-05T06:31:13.915Z,8.50
2022-12-05T06:33:40.538Z,7.50
2022-12-05T06:36:10.965Z,11.00
2022-12-05T06:38:41.964Z,7.27
2022-12-05T06:41:11.915Z,10.40
2022-12-05T06:43:38.461Z,7.10
2022-12-05T06:46:11.023Z,7.80
2022-12-05T06:48:37.803Z,6.67
2022-12-05T06:51:04.860Z,8.40
2022-12-05T06:53:31.817Z,7.00
2022-12-05T06:56:00.542Z,9.40
2022-12-05T06:58:27.895Z,11.53
2022-12-05T07:01:13.610Z,8.83
2022-12-05T07:03:41.174Z,7.77
2022-12-05T07:06:08.951Z,5.13
2022-12-05T07:08:35.999Z,7.17
2022-12-05T07:11:03.753Z,6.03
2022-12-05T07:13:30.790Z,8.23
2022-12-05T07:15:59.078Z,9.57
2022-12-05T07:18:26.783Z,9.20
2022-12-05T07:21:17.331Z,12.30
2022-12-05T07:23:45.722Z,11.57
2022-12-05T07:26:15.200Z,10.53
2022-12-05T07:28:42.533Z,11.10
2022-12-05T07:31:11.461Z,9.93
2022-12-05T07:33:38.571Z,8.80
2022-12-05T07:36:07.573Z,12.63
2022-12-05T07:38:34.211Z,14.67
2022-12-05T07:41:09.033Z,17.73
2022-12-05T07:43:39.575Z,12.83
2022-12-05T07:46:08.491Z,14.83
2022-12-05T07:48:35.173Z,18.57
2022-12-05T07:51:04.048Z,16.03
2022-12-05T07:53:32.335Z,15.97
2022-12-05T07:56:04.412Z,14.67
2022-12-05T07:58:32.275Z,15.03
2022-12-05T08:01:07.156Z,15.97
2022-12-05T08:03:34.349Z,16.10
2022-12-05T08:06:09.973Z,14.13
2022-12-05T08:08:37.035Z,10.37
2022-12-05T08:11:10.212Z,10.00
2022-12-05T08:13:37.622Z,15.03
2022-12-05T08:16:06.992Z,14.63
2022-12-05T08:18:33.959Z,13.40
2022-12-05T08:21:14.633Z,8.60
2022-12-05T08:23:41.716Z,10.90
2022-12-05T08:26:12.969Z,11.87
2022-12-05T08:28:40.782Z,10.70
2022-12-05T08:31:10.266Z,8.43
2022-12-05T08:33:37.433Z,6.53
2022-12-05T08:36:06.784Z,8.00
2022-12-05T08:38:34.105Z,10.90
2022-12-05T08:41:02.430Z,14.73
2022-12-05T08:43:30.426Z,9.73
2022-12-05T08:45:57.261Z,10.37
2022-12-05T08:48:29.057Z,9.73
2022-12-05T08:50:56.149Z,10.53
2022-12-05T08:53:22.898Z,13.20
2022-12-05T08:55:49.509Z,10.17
2022-12-05T08:58:16.235Z,9.70
2022-12-05T09:00:43.645Z,8.57
2022-12-05T09:03:11.960Z,8.43
2022-12-05T09:05:38.717Z,8.23
2022-12-05T09:08:05.600Z,9.97
2022-12-05T09:10:32.922Z,13.40
2022-12-05T09:12:59.881Z,13.67
2022-12-05T09:15:26.499Z,12.93
2022-12-05T09:17:53.099Z,13.97
2022-12-05T09:20:20.013Z,9.97
2022-12-05T09:22:46.658Z,9.60
2022-12-05T09:25:13.267Z,11.23
2022-12-05T09:27:39.850Z,11.23
2022-12-05T09:30:07.063Z,9.63
2022-12-05T09:32:33.670Z,9.20
2022-12-05T09:35:00.637Z,6.93
2022-12-05T09:37:42.679Z,6.50
2022-12-05T09:40:16.574Z,8.77
2022-12-05T09:43:06.806Z,7.80
2022-12-05T09:45:39.514Z,10.33
2022-12-05T09:48:16.213Z,9.20
2022-12-05T09:50:50.053Z,9.83
2022-12-05T09:53:22.398Z,9.70
2022-12-05T09:56:02.073Z,10.03
2022-12-05T09:58:46.057Z,10.57
2022-12-05T10:01:31.652Z,12.90
2022-12-05T10:04:24.735Z,17.13
2022-12-05T10:07:07.293Z,19.03
2022-12-05T10:09:52.213Z,17.00
2022-12-05T10:12:37.358Z,24.00
2022-12-05T10:15:09.450Z,17.07
2022-12-05T10:17:38.712Z,10.53
2022-12-05T10:20:19.284Z,10.10
2022-12-05T10:23:00.575Z,10.57
2022-12-05T10:25:29.262Z,10.73
2022-12-05T10:27:59.871Z,12.30
2022-12-05T10:30:33.154Z,10.43
2022-12-05T10:33:08.038Z,9.00
2022-12-05T10:35:41.289Z,7.67
2022-12-05T10:38:15.837Z,9.37
2022-12-05T10:40:50.321Z,12.50
2022-12-05T10:43:31.079Z,12.23
2022-12-05T10:45:58.901Z,12.33
2022-12-05T10:48:26.007Z,11.60
2022-12-05T10:50:55.807Z,11.40
2022-12-05T10:53:28.803Z,11.90
2022-12-05T10:56:28.926Z,15.50
2022-12-05T10:58:55.825Z,18.70
2022-12-05T11:01:23.705Z,18.17
2022-12-05T11:04:13.630Z,18.80
2022-12-05T11:06:50.922Z,19.73
2022-12-05T11:09:20.919Z,16.60
2022-12-05T11:12:09.208Z,18.90
2022-12-05T11:14:36.469Z,15.17
2022-12-05T11:17:05.549Z,12.67
2022-12-05T11:19:36.009Z,11.27
2022-12-05T11:22:04.846Z,12.03
2022-12-05T11:24:35.636Z,12.13
2022-12-05T11:27:17.463Z,10.93
2022-12-05T11:29:53.587Z,9.93
2022-12-05T11:32:23.301Z,10.63
2022-12-05T11:35:17.470Z,9.07
2022-12-05T11:37:50.270Z,10.67
2022-12-05T11:40:28.811Z,9.83
2022-12-05T11:43:18.041Z,9.33
2022-12-05T11:45:59.714Z,10.93
2022-12-05T11:48:54.582Z,11.57
2022-12-05T11:51:42.536Z,11.73
2022-12-05T11:55:03.808Z,13.03
2022-12-05T11:57:51.981Z,15.30
2022-12-05T12:00:26.922Z,11.60
2022-12-05T12:03:44.812Z,11.20
2022-12-05T12:06:49.641Z,12.83
2022-12-05T12:09:22.337Z,12.17
2022-12-05T12:11:48.898Z,13.50
2022-12-05T12:14:28.282Z,14.27
2022-12-05T12:17:22.711Z,15.13
2022-12-05T12:20:19.738Z,12.83
2022-12-05T12:23:05.039Z,14.27
2022-12-05T12:25:37.325Z,18.57
2022-12-05T12:28:41.330Z,20.17
2022-12-05T12:31:23.592Z,18.37
2022-12-05T12:34:13.031Z,24.50
2022-12-05T12:36:59.859Z,20.83
2022-12-05T12:39:32.715Z,21.60
2022-12-05T12:42:08.833Z,27.57
2022-12-05T12:44:51.877Z,21.60
2022-12-05T12:47:55.995Z,28.00
2022-12-05T12:50:27.028Z,27.37
2022-12-05T12:53:02.643Z,24.73
2022-12-05T12:55:36.661Z,21.73
2022-12-05T12:58:16.094Z,24.93
2022-12-05T13:00:42.721Z,23.17
2022-12-05T13:04:02.934Z,20.20
2022-12-05T13:06:40.000Z,17.40
2022-12-05T13:09:16.857Z,17.47
2022-12-05T13:11:46.856Z,14.80
2022-12-05T13:14:17.775Z,20.40
2022-12-05T13:16:50.300Z,32.03
2022-12-05T13:19:43.468Z,22.10
2022-12-05T13:22:11.350Z,19.27
2022-12-05T13:24:38.808Z,28.07
2022-12-05T13:27:08.883Z,24.23
2022-12-05T13:29:42.850Z,30.33
2022-12-05T13:32:30.506Z,32.47
2022-12-05T13:35:09.915Z,23.90
2022-12-05T13:37:56.233Z,31.87
2022-12-05T13:40:46.097Z,27.03
2022-12-05T13:43:16.466Z,22.20
2022-12-05T13:45:59.251Z,29.17
2022-12-05T13:48:28.251Z,28.77
2022-12-05T13:51:09.798Z,18.47
2022-12-05T13:53:47.646Z,23.63
2022-12-05T13:56:14.193Z,30.63
2022-12-05T13:58:51.049Z,17.93
2022-12-05T14:01:27.071Z,25.63
2022-12-05T14:04:03.857Z,18.20
2022-12-05T14:06:39.392Z,23.33
2022-12-05T14:09:11.829Z,23.17
2022-12-05T14:11:38.385Z,24.17
2022-12-05T14:14:08.377Z,25.50
2022-12-05T14:16:35.265Z,20.80
2022-12-05T14:19:15.137Z,29.03
2022-12-05T14:22:02.973Z,22.50
2022-12-05T14:24:44.346Z,21.80
2022-12-05T14:27:27.061Z,27.53
2022-12-05T14:30:06.223Z,25.00
2022-12-05T14:32:37.354Z,32.40
2022-12-05T14:35:10.989Z,23.37
2022-12-05T14:37:53.365Z,31.53
2022-12-05T14:40:42.930Z,29.37
2022-12-05T14:43:26.993Z,35.17
2022-12-05T14:45:57.828Z,29.90
2022-12-05T14:48:47.916Z,34.60
2022-12-05T14:51:32.949Z,30.63
2022-12-05T14:54:19.627Z,29.87
2022-12-05T14:56:52.455Z,15.47
2022-12-05T14:59:31.027Z,14.07
2022-12-05T15:02:01.036Z,12.17
2022-12-05T15:04:52.710Z,17.93
2022-12-05T15:07:22.990Z,16.97
2022-12-05T15:09:59.748Z,17.80
2022-12-05T15:12:36.986Z,16.67
2022-12-05T15:15:13.902Z,11.37
2022-12-05T15:17:48.585Z,28.53
2022-12-05T15:20:20.878Z,30.43
2022-12-05T15:22:48.004Z,21.30
2022-12-05T15:25:29.432Z,17.43
2022-12-05T15:28:06.035Z,27.17
2022-12-05T15:30:36.298Z,17.87
2022-12-05T15:33:03.003Z,17.80
2022-12-05T15:35:32.634Z,17.40
2022-12-05T15:38:13.617Z,20.87
2022-12-05T15:40:47.574Z,17.20
2022-12-05T15:43:32.328Z,17.03
2022-12-05T15:46:24.547Z,17.53
2022-12-05T15:48:52.912Z,17.57
2022-12-05T15:51:23.500Z,18.67
2022-12-05T15:54:19.274Z,27.93
2022-12-05T15:56:55.462Z,34.60
2022-12-05T15:59:29.058Z,28.57
2022-12-05T16:02:02.023Z,26.97
2022-12-05T16:04:35.926Z,14.53
2022-12-05T16:07:08.619Z,14.60
2022-12-05T16:09:41.243Z,13.43
2022-12-05T16:12:34.827Z,15.90
2022-12-05T16:15:05.134Z,14.17
2022-12-05T16:17:42.378Z,13.80
2022-12-05T16:20:17.876Z,15.73
2022-12-05T16:22:47.369Z,12.60
2022-12-05T16:25:16.801Z,15.43
2022-12-05T16:27:59.472Z,18.33
2022-12-05T16:30:26.843Z,22.47
2022-12-05T16:33:19.797Z,24.30
2022-12-05T16:35:47.503Z,27.53
2022-12-05T16:38:17.151Z,23.70
2022-12-05T16:40:49.713Z,23.83
2022-12-05T16:43:20.804Z,43.80
2022-12-05T16:45:48.624Z,46.50
2022-12-05T16:48:30.301Z,44.97
2022-12-05T16:51:25.936Z,31.03
2022-12-05T16:53:54.896Z,27.93
2022-12-05T16:56:32.899Z,27.33
2022-12-05T16:59:04.406Z,28.50
2022-12-05T17:01:35.730Z,29.33
2022-12-05T17:04:05.311Z,15.03
2022-12-05T17:06:31.931Z,12.17
2022-12-05T17:08:59.190Z,16.53
2022-12-05T17:11:28.072Z,19.43
2022-12-05T17:13:56.920Z,15.07
2022-12-05T17:16:24.755Z,10.40
2022-12-05T17:18:51.431Z,10.30
2022-12-05T17:21:21.341Z,11.20
2022-12-05T17:23:48.599Z,7.23
2022-12-05T17:26:17.521Z,7.43
2022-12-05T17:28:44.263Z,5.93
2022-12-05T17:31:17.283Z,7.77
2022-12-05T17:33:45.893Z,9.47
2022-12-05T17:36:13.419Z,10.47
2022-12-05T17:38:40.138Z,8.03
2022-12-05T17:41:07.496Z,7.47
2022-12-05T17:43:34.501Z,6.80
2022-12-05T17:46:02.194Z,7.57
2022-12-05T17:48:29.558Z,6.40
2022-12-05T17:50:59.015Z,6.80
2022-12-05T17:53:25.712Z,8.27
2022-12-05T17:55:52.363Z,6.50
2022-12-05T17:58:19.013Z,8.67
2022-12-05T18:00:46.784Z,7.57
2022-12-05T18:03:16.332Z,12.40
2022-12-05T18:05:43.743Z,11.63
2022-12-05T18:08:11.401Z,10.93
2022-12-05T18:10:41.754Z,12.00
2022-12-05T18:13:09.062Z,9.53
2022-12-05T18:15:42.316Z,10.83
2022-12-05T18:18:15.029Z,11.47
2022-12-05T18:20:41.759Z,12.53
2022-12-05T18:23:08.677Z,19.27
2022-12-05T18:25:37.834Z,17.13
2022-12-05T18:28:04.569Z,15.30
2022-12-05T18:30:31.206Z,13.70
2022-12-05T18:32:58.057Z,11.47
2022-12-05T18:35:40.722Z,10.03
2022-12-05T18:38:09.942Z,16.40
2022-12-05T18:40:36.636Z,19.03
2022-12-05T18:43:03.620Z,21.33
2022-12-05T18:45:30.255Z,31.77
2022-12-05T18:48:04.540Z,20.00
2022-12-05T18:50:36.745Z,17.67
2022-12-05T18:53:03.672Z,14.03
2022-12-05T18:55:57.857Z,17.23
2022-12-05T18:58:16.907Z,16.47
2022-12-05T19:00:43.516Z,10.93
2022-12-05T19:03:10.155Z,15.10
2022-12-05T19:05:36.786Z,13.07
2022-12-05T19:08:03.505Z,10.47
2022-12-05T19:10:30.216Z,15.23
2022-12-05T19:12:57.179Z,9.53
2022-12-05T19:15:24.194Z,6.47
2022-12-05T19:17:50.844Z,11.23
2022-12-05T19:20:17.670Z,14.13
2022-12-05T19:22:44.278Z,7.13
2022-12-05T19:25:10.859Z,5.10
2022-12-05T19:27:37.432Z,4.63
2022-12-05T19:30:09.495Z,4.93
2022-12-05T19:32:40.132Z,6.40
2022-12-05T19:35:07.909Z,4.40
2022-12-05T19:37:35.525Z,5.20
2022-12-05T19:40:02.258Z,4.90
2022-12-05T19:42:29.669Z,4.40
2022-12-05T19:44:56.377Z,5.80
2022-12-05T19:47:23.105Z,6.37
2022-12-05T19:49:49.793Z,8.27
2022-12-05T19:52:18.029Z,9.47
2022-12-05T19:54:45.209Z,13.13
2022-12-05T19:57:12.393Z,10.97
2022-12-05T19:59:39.037Z,6.33
2022-12-05T20:02:05.745Z,5.87
2022-12-05T20:04:32.536Z,5.60
2022-12-05T20:06:59.182Z,5.40
2022-12-05T20:09:25.806Z,5.13
2022-12-05T20:11:55.418Z,5.10
2022-12-05T20:14:24.403Z,5.37
2022-12-05T20:16:51.190Z,6.73
2022-12-05T20:19:17.946Z,3.20
2022-12-05T20:21:44.690Z,3.40
2022-12-05T20:24:11.729Z,4.40
2022-12-05T20:26:41.387Z,4.20
2022-12-05T20:29:08.535Z,5.40
2022-12-05T20:31:37.996Z,4.67
2022-12-05T20:34:06.009Z,4.73
2022-12-05T20:36:34.734Z,5.03
2022-12-05T20:39:03.245Z,6.37
2022-12-05T20:41:30.496Z,5.67
2022-12-05T20:44:02.830Z,4.90
2022-12-05T20:46:30.331Z,4.87
2022-12-05T20:48:57.182Z,4.97
2022-12-05T20:51:29.642Z,5.23
2022-12-05T20:53:57.981Z,5.57
2022-12-05T20:56:28.165Z,5.20
2022-12-05T20:58:57.259Z,4.90
2022-12-05T21:01:25.749Z,4.57
2022-12-05T21:03:53.423Z,6.53
2022-12-05T21:06:24.631Z,4.63
2022-12-05T21:08:52.424Z,6.80
2022-12-05T21:11:19.169Z,4.73
2022-12-05T21:13:46.136Z,4.80
2022-12-05T21:16:19.353Z,5.20
2022-12-05T21:18:46.551Z,4.47
2022-12-05T21:21:16.616Z,5.57
2022-12-05T21:23:44.582Z,4.83
2022-12-05T21:26:14.674Z,4.63
2022-12-05T21:28:42.362Z,5.43
2022-12-05T21:31:12.481Z,5.93
2022-12-05T21:33:40.830Z,5.13
2022-12-05T21:36:08.794Z,5.60
2022-12-05T21:38:35.865Z,6.90
2022-12-05T21:41:04.610Z,6.50
2022-12-05T21:43:31.697Z,6.17
2022-12-05T21:45:58.349Z,5.37
2022-12-05T21:48:25.694Z,5.40
2022-12-05T21:50:54.233Z,5.43
2022-12-05T21:53:21.279Z,4.90
2022-12-05T21:55:47.883Z,7.70
2022-12-05T21:58:14.708Z,7.23
2022-12-05T22:00:42.664Z,7.67
2022-12-05T22:03:13.753Z,8.27
2022-12-05T22:05:40.907Z,6.40
2022-12-05T22:08:07.689Z,6.30
2022-12-05T22:10:34.926Z,5.53
2022-12-05T22:13:01.534Z,6.63
2022-12-05T22:15:28.112Z,5.70
2022-12-05T22:17:54.767Z,7.07
2022-12-05T22:20:21.644Z,6.93
2022-12-05T22:22:48.263Z,11.40
2022-12-05T22:25:15.155Z,5.10
2022-12-05T22:27:41.835Z,4.83
2022-12-05T22:30:09.018Z,4.90
2022-12-05T22:32:35.623Z,5.87
2022-12-05T22:35:04.180Z,5.33
2022-12-05T22:37:31.603Z,5.50
2022-12-05T22:39:58.525Z,5.20
2022-12-05T22:42:28.304Z,5.60
2022-12-05T22:44:54.860Z,5.23
2022-12-05T22:47:21.450Z,4.97
2022-12-05T22:49:48.102Z,5.20
2022-12-05T22:52:15.352Z,5.77
2022-12-05T22:54:42.047Z,5.20
2022-12-05T22:57:08.644Z,5.30
2022-12-05T22:59:35.283Z,5.63
2022-12-05T23:02:01.853Z,5.27
2022-12-05T23:04:28.551Z,6.13
2022-12-05T23:06:55.234Z,6.17
2022-12-05T23:09:22.018Z,6.00
2022-12-05T23:11:50.530Z,5.20
2022-12-05T23:14:17.515Z,6.57
2022-12-05T23:16:45.259Z,7.67
2022-12-05T23:19:11.936Z,7.97
2022-12-05T23:21:40.178Z,7.43
2022-12-05T23:24:09.293Z,6.50
2022-12-05T23:26:42.406Z,5.90
2022-12-05T23:29:09.739Z,6.03
2022-12-05T23:31:36.469Z,5.47
2022-12-05T23:34:04.221Z,6.60
2022-12-05T23:36:35.302Z,5.77
2022-12-05T23:39:02.392Z,5.50
2022-12-05T23:41:29.163Z,7.33
2022-12-05T23:43:56.856Z,6.53
2022-12-05T23:46:26.094Z,6.33
2022-12-05T23:48:53.562Z,8.10
2022-12-05T23:51:25.929Z,6.17
2022-12-05T23:53:55.696Z,7.77
2022-12-05T23:56:25.638Z,6.37
2022-12-05T23:58:53.430Z,6.93
